Arapahoe, CO

12:50 AM MDT on August 20, 2014 (GMT -0600)
KWS | Change Station
CLOSE
Current Station
Personal Weather Station
Location: Cheyenne Wells, CO
Elevation: 4252 ft
Nearby Weather Stations

Elev 4252 ft 38.82 °N, 102.33 °W | Updated 48 seconds ago

Clear
Clear
74.9 °F
Feels Like 78 °F
N
10.0
Wind Variable Wind from SSW
Gusts 15.0 mph

Today
High -- | Low -- °F
--% Chance of Precip.
Yesterday
High -- | Low -- °F
Precip. -- in
6:07 AM 7:36 PM
Waning Crescent, 24% visible
Pressure 29.69 in
Visibility 10.0 miles
Clouds Clear
Heat Index 78 °F
Dew Point 57 °F
Humidity 54%
Rainfall 0.00 in
Snow Depth Not available.
UV 0 out of 12
Pollen 9.10 out of 12
Air Quality Not available.
Flu Activity Not available.
METAR KITR 200553Z AUTO 17009KT 10SM CLR 23/11 A2988 RMK AO2 SLP054 T02330106 10339 20222 50011

More Conditions Fewer Conditions

Pressure 29.69 in
Visibility 10.0 miles
Clouds Clear
Heat Index 78 °F
Dew Point 57 °F
Humidity 54%
Rainfall 0.00 in
Snow Depth Not available.
UV 0 out of 12
Pollen 9.10 out of 12
Air Quality Not available.
Flu Activity Not available.
METAR KITR 200553Z AUTO 17009KT 10SM CLR 23/11 A2988 RMK AO2 SLP054 T02330106 10339 20222 50011

More Conditions Fewer Conditions

10-Day Weather Forecast

Almanac

Astronomy

Aug. 20, 2014 Rise Set
Actual Time 6:07 AM MDT 7:36 PM MDT
Civil Twilight 5:38 AM MDT 8:04 PM MDT
Nautical Twilight 5:05 AM MDT 8:38 PM MDT
Astronomical Twilight 4:29 AM MDT 9:14 PM MDT
Moon 1:49 AM MDT 4:22 PM MDT
Length of Visible Light 14h 25m
Length of Day
13h 29m
Tomorrow will be 2m 18s shorter.
Waning Crescent, 24% of the Moon is Illuminated
Today
Waning Crescent
Aug 25
New
Sep 2
First Quarter
Sep 8
Full
Sep 15
Last Quarter

Community

WunderPhotos

Upload Photos

1,745,592 photos uploaded!

Nearby

Snow Depth

Station Depth Elevation
Echo Lake 0 in 10600 ft
Medano Pass 0 in 9620 ft
South Colony 0 in 10800 ft
Ute Creek 0 in 10650 ft
Niwot 1 in 9910 ft

Earthquake Activity

City Distance Mag. Time & Date
No recent earthquake activity has been reported nearby.
Minimum magnitude displayed is 2.5.

Coastal Water Temperatures

Place Temperature
No Stations Reporting

Nearby Weather Stations